sensor_id;sensor_type;location;lat;lon;timestamp;P1;durP1;ratioP1;P2;durP2;ratioP2
55220;SDS011;41089;51.448;6.604;2023-12-20T00:03:15;22.27;;;10.50;;
55220;SDS011;41089;51.448;6.604;2023-12-20T00:09:16;14.82;;;10.15;;
55220;SDS011;41089;51.448;6.604;2023-12-20T00:15:16;17.00;;;10.50;;
55220;SDS011;41089;51.448;6.604;2023-12-20T00:21:17;18.10;;;10.30;;
55220;SDS011;41089;51.448;6.604;2023-12-20T00:27:17;11.33;;;8.53;;
55220;SDS011;41089;51.448;6.604;2023-12-20T00:33:17;17.38;;;9.27;;
55220;SDS011;41089;51.448;6.604;2023-12-20T00:39:18;22.08;;;9.93;;
55220;SDS011;41089;51.448;6.604;2023-12-20T00:45:18;15.73;;;9.43;;
55220;SDS011;41089;51.448;6.604;2023-12-20T00:51:19;18.10;;;9.02;;
55220;SDS011;41089;51.448;6.604;2023-12-20T00:57:19;15.32;;;10.55;;
55220;SDS011;41089;51.448;6.604;2023-12-20T01:03:19;18.67;;;12.13;;
55220;SDS011;41089;51.448;6.604;2023-12-20T01:09:21;22.10;;;9.60;;
55220;SDS011;41089;51.448;6.604;2023-12-20T01:15:23;15.93;;;9.75;;
55220;SDS011;41089;51.448;6.604;2023-12-20T01:21:23;13.15;;;8.27;;
55220;SDS011;41089;51.448;6.604;2023-12-20T01:27:24;17.98;;;8.93;;
55220;SDS011;41089;51.448;6.604;2023-12-20T01:33:24;15.77;;;8.10;;
55220;SDS011;41089;51.448;6.604;2023-12-20T01:39:24;16.98;;;7.75;;
55220;SDS011;41089;51.448;6.604;2023-12-20T01:45:25;17.73;;;7.32;;
55220;SDS011;41089;51.448;6.604;2023-12-20T01:51:25;16.38;;;7.28;;
55220;SDS011;41089;51.448;6.604;2023-12-20T01:57:27;19.52;;;8.15;;
55220;SDS011;41089;51.448;6.604;2023-12-20T02:03:27;21.80;;;7.20;;
55220;SDS011;41089;51.448;6.604;2023-12-20T02:09:28;18.33;;;8.07;;
55220;SDS011;41089;51.448;6.604;2023-12-20T02:15:28;19.00;;;8.10;;
55220;SDS011;41089;51.448;6.604;2023-12-20T02:21:32;18.93;;;6.40;;
55220;SDS011;41089;51.448;6.604;2023-12-20T02:27:34;16.42;;;6.35;;
55220;SDS011;41089;51.448;6.604;2023-12-20T02:33:34;10.77;;;5.57;;
55220;SDS011;41089;51.448;6.604;2023-12-20T02:39:35;17.93;;;5.93;;
55220;SDS011;41089;51.448;6.604;2023-12-20T02:45:35;10.20;;;4.47;;
55220;SDS011;41089;51.448;6.604;2023-12-20T02:51:35;16.23;;;4.15;;
55220;SDS011;41089;51.448;6.604;2023-12-20T02:57:38;16.98;;;4.03;;
55220;SDS011;41089;51.448;6.604;2023-12-20T03:03:41;16.30;;;3.17;;
55220;SDS011;41089;51.448;6.604;2023-12-20T03:09:44;11.38;;;3.38;;
55220;SDS011;41089;51.448;6.604;2023-12-20T03:15:45;19.67;;;3.38;;
55220;SDS011;41089;51.448;6.604;2023-12-20T03:21:45;13.55;;;3.03;;
55220;SDS011;41089;51.448;6.604;2023-12-20T03:27:46;11.77;;;3.53;;
55220;SDS011;41089;51.448;6.604;2023-12-20T03:33:48;16.80;;;3.38;;
55220;SDS011;41089;51.448;6.604;2023-12-20T03:39:48;13.07;;;3.05;;
55220;SDS011;41089;51.448;6.604;2023-12-20T03:45:49;15.90;;;3.40;;
55220;SDS011;41089;51.448;6.604;2023-12-20T03:51:49;10.90;;;2.63;;
55220;SDS011;41089;51.448;6.604;2023-12-20T03:57:49;16.00;;;3.45;;
55220;SDS011;41089;51.448;6.604;2023-12-20T04:03:50;21.38;;;4.22;;
55220;SDS011;41089;51.448;6.604;2023-12-20T04:09:50;13.48;;;3.40;;
55220;SDS011;41089;51.448;6.604;2023-12-20T04:15:51;12.63;;;3.35;;
55220;SDS011;41089;51.448;6.604;2023-12-20T04:21:52;17.13;;;3.38;;
55220;SDS011;41089;51.448;6.604;2023-12-20T04:27:53;26.17;;;6.00;;
55220;SDS011;41089;51.448;6.604;2023-12-20T04:33:54;16.27;;;3.38;;
55220;SDS011;41089;51.448;6.604;2023-12-20T04:39:54;19.55;;;4.05;;
55220;SDS011;41089;51.448;6.604;2023-12-20T04:45:55;18.13;;;5.18;;
55220;SDS011;41089;51.448;6.604;2023-12-20T04:51:55;16.15;;;3.92;;
55220;SDS011;41089;51.448;6.604;2023-12-20T04:57:56;10.70;;;4.10;;
55220;SDS011;41089;51.448;6.604;2023-12-20T05:03:57;19.13;;;4.40;;
55220;SDS011;41089;51.448;6.604;2023-12-20T05:09:58;15.80;;;5.22;;
55220;SDS011;41089;51.448;6.604;2023-12-20T05:15:59;19.48;;;5.63;;
55220;SDS011;41089;51.448;6.604;2023-12-20T05:21:59;23.33;;;6.07;;
55220;SDS011;41089;51.448;6.604;2023-12-20T05:28:00;22.10;;;6.63;;
55220;SDS011;41089;51.448;6.604;2023-12-20T05:34:00;21.07;;;5.67;;
55220;SDS011;41089;51.448;6.604;2023-12-20T05:40:00;16.67;;;6.18;;
55220;SDS011;41089;51.448;6.604;2023-12-20T05:46:01;20.67;;;5.50;;
55220;SDS011;41089;51.448;6.604;2023-12-20T05:52:02;19.08;;;6.97;;
55220;SDS011;41089;51.448;6.604;2023-12-20T05:58:02;24.17;;;6.53;;
55220;SDS011;41089;51.448;6.604;2023-12-20T06:04:03;21.85;;;6.53;;
55220;SDS011;41089;51.448;6.604;2023-12-20T06:10:04;22.73;;;6.00;;
55220;SDS011;41089;51.448;6.604;2023-12-20T06:16:06;21.15;;;5.30;;
55220;SDS011;41089;51.448;6.604;2023-12-20T06:22:09;19.20;;;6.75;;
55220;SDS011;41089;51.448;6.604;2023-12-20T06:28:10;23.88;;;7.47;;
55220;SDS011;41089;51.448;6.604;2023-12-20T06:34:14;23.23;;;6.20;;
55220;SDS011;41089;51.448;6.604;2023-12-20T06:40:14;18.98;;;5.07;;
55220;SDS011;41089;51.448;6.604;2023-12-20T06:46:16;14.80;;;5.65;;
55220;SDS011;41089;51.448;6.604;2023-12-20T06:52:16;21.67;;;5.55;;
55220;SDS011;41089;51.448;6.604;2023-12-20T06:58:17;16.48;;;5.55;;
55220;SDS011;41089;51.448;6.604;2023-12-20T07:04:17;18.65;;;4.45;;
55220;SDS011;41089;51.448;6.604;2023-12-20T07:10:21;21.08;;;4.82;;
55220;SDS011;41089;51.448;6.604;2023-12-20T07:16:22;19.77;;;5.18;;
55220;SDS011;41089;51.448;6.604;2023-12-20T07:22:22;21.13;;;5.40;;
55220;SDS011;41089;51.448;6.604;2023-12-20T07:28:23;14.80;;;4.83;;
55220;SDS011;41089;51.448;6.604;2023-12-20T07:34:24;18.85;;;5.85;;
55220;SDS011;41089;51.448;6.604;2023-12-20T07:40:25;18.13;;;4.93;;
55220;SDS011;41089;51.448;6.604;2023-12-20T07:46:25;13.80;;;4.47;;
55220;SDS011;41089;51.448;6.604;2023-12-20T07:52:26;19.50;;;5.65;;
55220;SDS011;41089;51.448;6.604;2023-12-20T07:58:26;16.23;;;5.15;;
55220;SDS011;41089;51.448;6.604;2023-12-20T08:04:26;21.20;;;5.70;;
55220;SDS011;41089;51.448;6.604;2023-12-20T08:10:27;18.75;;;5.70;;
55220;SDS011;41089;51.448;6.604;2023-12-20T08:16:30;22.70;;;4.60;;
55220;SDS011;41089;51.448;6.604;2023-12-20T08:22:30;17.85;;;5.07;;
55220;SDS011;41089;51.448;6.604;2023-12-20T08:28:31;18.73;;;5.93;;
55220;SDS011;41089;51.448;6.604;2023-12-20T08:34:31;20.53;;;4.30;;
55220;SDS011;41089;51.448;6.604;2023-12-20T08:40:32;16.00;;;4.13;;
55220;SDS011;41089;51.448;6.604;2023-12-20T08:46:32;14.32;;;3.88;;
55220;SDS011;41089;51.448;6.604;2023-12-20T08:52:33;18.17;;;4.05;;
55220;SDS011;41089;51.448;6.604;2023-12-20T08:58:34;14.38;;;3.70;;
55220;SDS011;41089;51.448;6.604;2023-12-20T09:04:36;15.98;;;3.80;;
55220;SDS011;41089;51.448;6.604;2023-12-20T09:10:37;14.83;;;4.17;;
55220;SDS011;41089;51.448;6.604;2023-12-20T09:16:37;18.15;;;4.57;;
55220;SDS011;41089;51.448;6.604;2023-12-20T09:22:38;17.83;;;4.25;;
55220;SDS011;41089;51.448;6.604;2023-12-20T09:28:39;17.67;;;4.65;;
55220;SDS011;41089;51.448;6.604;2023-12-20T09:34:40;14.32;;;3.95;;
55220;SDS011;41089;51.448;6.604;2023-12-20T09:40:41;16.73;;;4.30;;
55220;SDS011;41089;51.448;6.604;2023-12-20T09:46:45;16.52;;;4.38;;
55220;SDS011;41089;51.448;6.604;2023-12-20T09:52:51;15.18;;;4.47;;
55220;SDS011;41089;51.448;6.604;2023-12-20T09:58:52;20.35;;;3.70;;
55220;SDS011;41089;51.448;6.604;2023-12-20T10:04:54;18.15;;;4.13;;
55220;SDS011;41089;51.448;6.604;2023-12-20T10:10:56;19.25;;;5.53;;
55220;SDS011;41089;51.448;6.604;2023-12-20T10:17:03;20.67;;;5.32;;
55220;SDS011;41089;51.448;6.604;2023-12-20T10:23:04;17.67;;;4.00;;
55220;SDS011;41089;51.448;6.604;2023-12-20T10:29:04;13.23;;;3.60;;
55220;SDS011;41089;51.448;6.604;2023-12-20T10:35:05;13.25;;;4.22;;
55220;SDS011;41089;51.448;6.604;2023-12-20T10:41:05;14.15;;;4.00;;
55220;SDS011;41089;51.448;6.604;2023-12-20T10:47:06;13.18;;;3.70;;
55220;SDS011;41089;51.448;6.604;2023-12-20T10:53:07;18.52;;;4.18;;
55220;SDS011;41089;51.448;6.604;2023-12-20T10:59:07;16.98;;;4.88;;
55220;SDS011;41089;51.448;6.604;2023-12-20T11:11:57;18.83;;;4.93;;
55220;SDS011;41089;51.448;6.604;2023-12-20T11:18:13;16.15;;;4.63;;
55220;SDS011;41089;51.448;6.604;2023-12-20T11:24:15;15.48;;;4.70;;
55220;SDS011;41089;51.448;6.604;2023-12-20T11:30:17;18.73;;;5.05;;
55220;SDS011;41089;51.448;6.604;2023-12-20T11:36:18;14.20;;;4.20;;
55220;SDS011;41089;51.448;6.604;2023-12-20T11:42:22;15.73;;;4.60;;
55220;SDS011;41089;51.448;6.604;2023-12-20T11:48:22;18.33;;;4.37;;
55220;SDS011;41089;51.448;6.604;2023-12-20T11:54:23;22.23;;;4.93;;
55220;SDS011;41089;51.448;6.604;2023-12-20T12:00:24;17.70;;;5.20;;
55220;SDS011;41089;51.448;6.604;2023-12-20T12:06:24;13.38;;;4.68;;
55220;SDS011;41089;51.448;6.604;2023-12-20T12:12:25;13.60;;;4.75;;
55220;SDS011;41089;51.448;6.604;2023-12-20T12:18:27;20.48;;;5.00;;
55220;SDS011;41089;51.448;6.604;2023-12-20T12:24:27;20.23;;;4.97;;
55220;SDS011;41089;51.448;6.604;2023-12-20T12:30:29;10.98;;;3.92;;
55220;SDS011;41089;51.448;6.604;2023-12-20T12:36:30;17.20;;;4.30;;
55220;SDS011;41089;51.448;6.604;2023-12-20T12:42:31;10.93;;;3.63;;
55220;SDS011;41089;51.448;6.604;2023-12-20T12:48:31;14.95;;;5.80;;
55220;SDS011;41089;51.448;6.604;2023-12-20T12:54:32;17.48;;;4.75;;
55220;SDS011;41089;51.448;6.604;2023-12-20T13:00:32;24.00;;;5.87;;
55220;SDS011;41089;51.448;6.604;2023-12-20T13:06:33;17.55;;;4.85;;
55220;SDS011;41089;51.448;6.604;2023-12-20T13:12:33;15.63;;;5.60;;
55220;SDS011;41089;51.448;6.604;2023-12-20T13:18:33;12.20;;;5.93;;
55220;SDS011;41089;51.448;6.604;2023-12-20T13:24:34;18.60;;;6.72;;
55220;SDS011;41089;51.448;6.604;2023-12-20T13:30:34;13.43;;;5.75;;
55220;SDS011;41089;51.448;6.604;2023-12-20T13:36:35;14.65;;;5.50;;
55220;SDS011;41089;51.448;6.604;2023-12-20T13:42:36;14.18;;;5.82;;
55220;SDS011;41089;51.448;6.604;2023-12-20T13:48:36;16.47;;;6.23;;
55220;SDS011;41089;51.448;6.604;2023-12-20T13:54:38;15.82;;;5.22;;
55220;SDS011;41089;51.448;6.604;2023-12-20T14:00:38;22.50;;;6.82;;
55220;SDS011;41089;51.448;6.604;2023-12-20T14:06:38;17.88;;;6.47;;
55220;SDS011;41089;51.448;6.604;2023-12-20T14:12:39;15.98;;;5.53;;
55220;SDS011;41089;51.448;6.604;2023-12-20T14:18:39;19.27;;;5.68;;
55220;SDS011;41089;51.448;6.604;2023-12-20T14:24:40;15.00;;;6.40;;
55220;SDS011;41089;51.448;6.604;2023-12-20T14:30:40;18.00;;;5.97;;
55220;SDS011;41089;51.448;6.604;2023-12-20T14:36:41;18.37;;;6.73;;
55220;SDS011;41089;51.448;6.604;2023-12-20T14:42:42;19.92;;;6.10;;
55220;SDS011;41089;51.448;6.604;2023-12-20T14:48:43;18.08;;;5.90;;
55220;SDS011;41089;51.448;6.604;2023-12-20T14:54:44;15.30;;;5.75;;
55220;SDS011;41089;51.448;6.604;2023-12-20T15:00:45;13.90;;;5.13;;
55220;SDS011;41089;51.448;6.604;2023-12-20T15:06:46;15.52;;;5.68;;
55220;SDS011;41089;51.448;6.604;2023-12-20T15:12:46;13.73;;;4.40;;
55220;SDS011;41089;51.448;6.604;2023-12-20T15:18:47;16.42;;;5.20;;
55220;SDS011;41089;51.448;6.604;2023-12-20T15:24:47;16.15;;;5.65;;
55220;SDS011;41089;51.448;6.604;2023-12-20T15:30:48;13.63;;;4.60;;
55220;SDS011;41089;51.448;6.604;2023-12-20T15:36:48;15.43;;;4.87;;
55220;SDS011;41089;51.448;6.604;2023-12-20T15:42:49;21.40;;;5.40;;
55220;SDS011;41089;51.448;6.604;2023-12-20T15:48:49;13.67;;;5.30;;
55220;SDS011;41089;51.448;6.604;2023-12-20T15:54:51;19.42;;;6.47;;
55220;SDS011;41089;51.448;6.604;2023-12-20T16:00:52;16.63;;;6.85;;
55220;SDS011;41089;51.448;6.604;2023-12-20T16:06:54;19.02;;;7.15;;
55220;SDS011;41089;51.448;6.604;2023-12-20T16:19:54;16.30;;;5.53;;
55220;SDS011;41089;51.448;6.604;2023-12-20T16:25:54;20.13;;;6.40;;
55220;SDS011;41089;51.448;6.604;2023-12-20T16:31:55;14.98;;;6.13;;
55220;SDS011;41089;51.448;6.604;2023-12-20T16:37:55;16.67;;;6.00;;
55220;SDS011;41089;51.448;6.604;2023-12-20T16:43:56;13.05;;;5.75;;
55220;SDS011;41089;51.448;6.604;2023-12-20T16:49:56;21.33;;;7.57;;
55220;SDS011;41089;51.448;6.604;2023-12-20T16:55:59;18.08;;;6.53;;
55220;SDS011;41089;51.448;6.604;2023-12-20T17:02:00;16.77;;;6.90;;
55220;SDS011;41089;51.448;6.604;2023-12-20T17:08:03;19.65;;;6.65;;
55220;SDS011;41089;51.448;6.604;2023-12-20T17:14:03;15.63;;;7.15;;
55220;SDS011;41089;51.448;6.604;2023-12-20T17:20:04;15.68;;;6.65;;
55220;SDS011;41089;51.448;6.604;2023-12-20T17:26:06;14.60;;;7.00;;
55220;SDS011;41089;51.448;6.604;2023-12-20T17:32:07;15.35;;;7.07;;
55220;SDS011;41089;51.448;6.604;2023-12-20T17:38:07;12.02;;;7.72;;
55220;SDS011;41089;51.448;6.604;2023-12-20T17:44:08;17.87;;;6.57;;
55220;SDS011;41089;51.448;6.604;2023-12-20T17:50:08;14.65;;;6.32;;
55220;SDS011;41089;51.448;6.604;2023-12-20T17:56:10;20.20;;;6.90;;
55220;SDS011;41089;51.448;6.604;2023-12-20T18:02:10;18.95;;;7.45;;
55220;SDS011;41089;51.448;6.604;2023-12-20T18:08:10;15.30;;;6.75;;
55220;SDS011;41089;51.448;6.604;2023-12-20T18:14:10;21.33;;;7.30;;
55220;SDS011;41089;51.448;6.604;2023-12-20T18:20:12;15.60;;;7.32;;
55220;SDS011;41089;51.448;6.604;2023-12-20T18:26:13;14.00;;;6.63;;
55220;SDS011;41089;51.448;6.604;2023-12-20T18:32:13;16.42;;;7.35;;
55220;SDS011;41089;51.448;6.604;2023-12-20T18:38:14;15.82;;;7.47;;
55220;SDS011;41089;51.448;6.604;2023-12-20T18:44:15;13.68;;;6.75;;
55220;SDS011;41089;51.448;6.604;2023-12-20T18:50:16;12.40;;;6.07;;
55220;SDS011;41089;51.448;6.604;2023-12-20T18:56:16;13.17;;;6.30;;
55220;SDS011;41089;51.448;6.604;2023-12-20T19:02:16;15.32;;;8.13;;
55220;SDS011;41089;51.448;6.604;2023-12-20T19:08:18;14.15;;;7.38;;
55220;SDS011;41089;51.448;6.604;2023-12-20T19:14:19;15.43;;;6.43;;
55220;SDS011;41089;51.448;6.604;2023-12-20T19:20:21;16.50;;;7.38;;
55220;SDS011;41089;51.448;6.604;2023-12-20T19:26:24;14.77;;;5.95;;
55220;SDS011;41089;51.448;6.604;2023-12-20T19:32:24;12.52;;;5.65;;
55220;SDS011;41089;51.448;6.604;2023-12-20T19:38:24;11.50;;;5.43;;
55220;SDS011;41089;51.448;6.604;2023-12-20T19:44:26;16.00;;;6.07;;
55220;SDS011;41089;51.448;6.604;2023-12-20T19:50:26;10.15;;;4.70;;
55220;SDS011;41089;51.448;6.604;2023-12-20T20:27:17;11.73;;;6.55;;
55220;SDS011;41089;51.448;6.604;2023-12-20T20:33:19;18.67;;;7.80;;
55220;SDS011;41089;51.448;6.604;2023-12-20T20:39:19;14.18;;;5.80;;
55220;SDS011;41089;51.448;6.604;2023-12-20T20:45:20;9.83;;;6.03;;
55220;SDS011;41089;51.448;6.604;2023-12-20T20:51:20;16.15;;;7.32;;
55220;SDS011;41089;51.448;6.604;2023-12-20T20:57:22;10.60;;;5.40;;
55220;SDS011;41089;51.448;6.604;2023-12-20T21:03:24;13.65;;;6.05;;
55220;SDS011;41089;51.448;6.604;2023-12-20T21:09:24;15.23;;;6.22;;
55220;SDS011;41089;51.448;6.604;2023-12-20T21:15:26;10.82;;;6.53;;
55220;SDS011;41089;51.448;6.604;2023-12-20T21:21:26;12.90;;;6.60;;
55220;SDS011;41089;51.448;6.604;2023-12-20T21:27:26;17.63;;;7.22;;
55220;SDS011;41089;51.448;6.604;2023-12-20T21:33:27;12.50;;;6.88;;
55220;SDS011;41089;51.448;6.604;2023-12-20T21:39:27;11.53;;;6.23;;
55220;SDS011;41089;51.448;6.604;2023-12-20T21:45:30;11.63;;;5.80;;
55220;SDS011;41089;51.448;6.604;2023-12-20T21:51:30;13.35;;;6.60;;
55220;SDS011;41089;51.448;6.604;2023-12-20T21:57:32;18.52;;;7.15;;
55220;SDS011;41089;51.448;6.604;2023-12-20T22:03:33;13.40;;;7.10;;
55220;SDS011;41089;51.448;6.604;2023-12-20T22:09:45;13.95;;;6.85;;
55220;SDS011;41089;51.448;6.604;2023-12-20T22:15:46;11.20;;;6.03;;
55220;SDS011;41089;51.448;6.604;2023-12-20T22:21:52;18.02;;;6.78;;
55220;SDS011;41089;51.448;6.604;2023-12-20T22:27:53;11.30;;;6.22;;
55220;SDS011;41089;51.448;6.604;2023-12-20T22:33:54;13.23;;;6.72;;
55220;SDS011;41089;51.448;6.604;2023-12-20T22:39:54;14.82;;;7.10;;
55220;SDS011;41089;51.448;6.604;2023-12-20T22:45:55;11.40;;;6.20;;
55220;SDS011;41089;51.448;6.604;2023-12-20T22:51:55;18.92;;;7.10;;
55220;SDS011;41089;51.448;6.604;2023-12-20T22:57:56;12.13;;;6.50;;
55220;SDS011;41089;51.448;6.604;2023-12-20T23:03:56;11.90;;;7.03;;
55220;SDS011;41089;51.448;6.604;2023-12-20T23:09:56;8.40;;;6.30;;
55220;SDS011;41089;51.448;6.604;2023-12-20T23:15:57;12.60;;;8.13;;
55220;SDS011;41089;51.448;6.604;2023-12-20T23:21:57;13.93;;;7.32;;
55220;SDS011;41089;51.448;6.604;2023-12-20T23:27:57;10.20;;;6.40;;
55220;SDS011;41089;51.448;6.604;2023-12-20T23:33:58;7.63;;;6.82;;
55220;SDS011;41089;51.448;6.604;2023-12-20T23:40:00;11.33;;;8.07;;
55220;SDS011;41089;51.448;6.604;2023-12-20T23:46:00;12.82;;;7.32;;
55220;SDS011;41089;51.448;6.604;2023-12-20T23:52:01;10.77;;;6.93;;
55220;SDS011;41089;51.448;6.604;2023-12-20T23:58:02;11.15;;;7.75;;
